createdAt,value
2022-09-28T00:01:56.479Z,1.33
2022-09-28T00:06:48.962Z,1.50
2022-09-28T00:09:16.561Z,1.60
2022-09-28T00:11:43.958Z,1.60
2022-09-28T00:14:11.407Z,1.52
2022-09-28T00:16:39.671Z,1.30
2022-09-28T00:19:06.792Z,1.10
2022-09-28T00:21:34.280Z,1.35
2022-09-28T00:29:13.325Z,1.40
2022-09-28T00:31:40.111Z,1.30
2022-09-28T00:34:06.767Z,1.10
2022-09-28T00:36:34.748Z,1.30
2022-09-28T00:39:06.009Z,1.10
2022-09-28T00:41:32.654Z,1.13
2022-09-28T00:44:17.905Z,1.00
2022-09-28T00:46:44.573Z,1.00
2022-09-28T00:49:14.699Z,0.90
2022-09-28T00:51:42.352Z,1.63
2022-09-28T00:54:09.546Z,1.30
2022-09-28T00:56:38.342Z,1.20
2022-09-28T01:01:30.951Z,1.30
2022-09-28T01:04:01.990Z,0.95
2022-09-28T01:06:31.121Z,1.15
2022-09-28T01:09:00.538Z,1.20
2022-09-28T01:11:27.107Z,1.20
2022-09-28T01:13:55.495Z,1.17
2022-09-28T01:16:31.414Z,1.38
2022-09-28T01:21:51.579Z,1.13
2022-09-28T01:24:36.402Z,1.50
2022-09-28T01:27:06.117Z,1.25
2022-09-28T01:29:35.514Z,0.93
2022-09-28T01:34:57.823Z,1.00
2022-09-28T01:39:54.257Z,1.08
2022-09-28T01:42:23.833Z,1.73
2022-09-28T01:44:52.981Z,1.08
2022-09-28T01:47:21.394Z,1.33
2022-09-28T01:49:55.229Z,1.20
2022-09-28T01:54:57.338Z,1.02
2022-09-28T01:57:39.737Z,1.25
2022-09-28T02:00:10.350Z,1.13
2022-09-28T02:03:12.599Z,1.25
2022-09-28T02:05:47.041Z,1.00
2022-09-28T02:08:20.122Z,1.27
2022-09-28T02:10:58.247Z,1.00
2022-09-28T02:13:28.095Z,1.23
2022-09-28T02:15:59.122Z,1.10
2022-09-28T02:18:25.849Z,1.23
2022-09-28T02:20:56.871Z,1.00
2022-09-28T02:23:24.500Z,1.10
2022-09-28T02:25:55.990Z,1.00
2022-09-28T02:28:22.780Z,0.90
2022-09-28T02:30:50.480Z,1.40
2022-09-28T02:33:23.070Z,0.82
2022-09-28T02:35:49.721Z,0.93
2022-09-28T02:38:18.259Z,0.98
2022-09-28T02:40:49.263Z,0.80
2022-09-28T02:43:26.901Z,1.00
2022-09-28T02:45:59.982Z,0.80
2022-09-28T02:48:43.538Z,0.90
2022-09-28T02:51:24.978Z,1.00
2022-09-28T02:53:51.691Z,0.82
2022-09-28T02:59:30.047Z,0.88
2022-09-28T03:02:15.789Z,0.95
2022-09-28T03:05:02.748Z,0.80
2022-09-28T03:09:55.754Z,0.90
2022-09-28T03:12:23.618Z,0.90
2022-09-28T03:15:05.882Z,0.90
2022-09-28T03:17:32.521Z,1.00
2022-09-28T03:19:59.113Z,0.98
2022-09-28T03:24:51.240Z,1.05
2022-09-28T03:27:17.965Z,1.10
2022-09-28T03:34:35.765Z,1.13
2022-09-28T03:37:02.450Z,1.10
2022-09-28T03:39:29.176Z,1.17
2022-09-28T03:41:55.762Z,1.60
2022-09-28T03:44:22.419Z,1.30
2022-09-28T03:46:49.911Z,1.50
2022-09-28T03:49:16.796Z,1.50
2022-09-28T03:51:43.553Z,1.52
2022-09-28T03:54:10.555Z,1.33
2022-09-28T03:56:37.203Z,2.33
2022-09-28T03:59:04.027Z,1.90
2022-09-28T04:01:32.967Z,1.60
2022-09-28T04:04:00.429Z,1.88
2022-09-28T04:08:53.629Z,2.17
2022-09-28T04:11:20.837Z,1.88
2022-09-28T04:13:50.656Z,1.77
2022-09-28T04:16:18.658Z,2.08
2022-09-28T04:18:55.255Z,3.30
2022-09-28T04:21:40.851Z,2.55
2022-09-28T04:26:39.882Z,2.13
2022-09-28T04:31:44.205Z,2.33
2022-09-28T04:34:12.487Z,2.42
2022-09-28T04:36:39.343Z,2.22
2022-09-28T04:39:06.191Z,2.95
2022-09-28T04:41:33.610Z,3.17
2022-09-28T04:44:01.068Z,3.20
2022-09-28T04:51:18.579Z,2.20
2022-09-28T04:58:38.371Z,3.38
2022-09-28T05:01:07.111Z,2.42
2022-09-28T05:04:00.014Z,2.33
2022-09-28T05:09:13.434Z,2.58
2022-09-28T05:11:40.433Z,2.80
2022-09-28T05:14:12.294Z,3.15
2022-09-28T05:16:39.816Z,2.30
2022-09-28T05:19:06.632Z,2.20
2022-09-28T05:23:59.042Z,3.03
2022-09-28T05:26:26.485Z,2.80
2022-09-28T05:28:53.192Z,2.67
2022-09-28T05:31:19.860Z,2.78
2022-09-28T05:34:09.570Z,2.72
2022-09-28T05:41:29.570Z,2.78
2022-09-28T05:48:49.799Z,2.50
2022-09-28T05:51:17.510Z,2.65
2022-09-28T05:53:44.140Z,2.25
2022-09-28T05:56:11.203Z,2.22
2022-09-28T05:58:37.795Z,2.40
2022-09-28T06:01:04.982Z,2.30
2022-09-28T06:03:31.551Z,2.33
2022-09-28T06:06:00.381Z,2.50
2022-09-28T06:08:27.035Z,2.35
2022-09-28T06:13:27.928Z,2.60
2022-09-28T06:15:54.819Z,2.20
2022-09-28T06:23:13.125Z,2.30
2022-09-28T06:25:40.235Z,2.60
2022-09-28T06:28:09.109Z,2.20
2022-09-28T06:30:38.454Z,2.20
2022-09-28T06:33:10.026Z,2.47
2022-09-28T06:35:36.911Z,1.88
2022-09-28T06:38:03.551Z,2.45
2022-09-28T06:40:30.516Z,1.88
2022-09-28T06:43:01.530Z,2.85
2022-09-28T06:45:29.564Z,2.05
2022-09-28T06:53:27.618Z,2.08
2022-09-28T06:58:39.995Z,2.53
2022-09-28T07:01:07.050Z,2.10
2022-09-28T07:03:42.281Z,2.78
2022-09-28T07:06:28.896Z,2.28
2022-09-28T07:09:32.484Z,2.00
2022-09-28T07:12:21.867Z,2.03
2022-09-28T07:14:50.392Z,1.73
2022-09-28T07:17:17.573Z,2.05
2022-09-28T07:19:44.603Z,1.95
2022-09-28T07:22:18.547Z,1.90
2022-09-28T07:24:46.857Z,2.05
2022-09-28T07:27:32.050Z,1.97
2022-09-28T07:30:21.406Z,2.67
2022-09-28T07:33:06.154Z,2.70
2022-09-28T07:35:39.046Z,2.95
2022-09-28T07:40:51.428Z,2.72
2022-09-28T07:45:51.824Z,2.40
2022-09-28T07:48:18.931Z,2.22
2022-09-28T07:53:33.830Z,2.38
2022-09-28T07:56:20.468Z,2.05
2022-09-28T07:58:57.085Z,1.60
2022-09-28T08:03:49.129Z,1.55
2022-09-28T08:06:17.162Z,1.48
2022-09-28T08:08:44.769Z,1.88
2022-09-28T08:11:15.126Z,1.80
2022-09-28T08:13:41.706Z,1.60
2022-09-28T08:18:59.903Z,1.75
2022-09-28T08:21:45.238Z,1.60
2022-09-28T08:24:16.324Z,1.80
2022-09-28T08:26:43.271Z,1.35
2022-09-28T08:29:10.035Z,1.73
2022-09-28T08:31:51.752Z,1.83
2022-09-28T08:37:09.675Z,1.88
2022-09-28T08:42:20.835Z,1.70
2022-09-28T08:45:14.453Z,1.90
2022-09-28T08:51:18.182Z,1.50
2022-09-28T08:57:13.458Z,0.98
2022-09-28T08:59:49.707Z,1.30
2022-09-28T09:02:19.887Z,1.20
2022-09-28T09:04:47.453Z,1.80
2022-09-28T09:10:04.087Z,1.70
2022-09-28T09:12:48.388Z,1.48
2022-09-28T09:15:17.813Z,1.45
2022-09-28T09:17:56.923Z,1.70
2022-09-28T09:20:37.819Z,2.83
2022-09-28T09:23:17.928Z,3.55
2022-09-28T09:25:55.159Z,1.70
2022-09-28T09:28:28.457Z,2.75
2022-09-28T09:31:01.025Z,1.75
2022-09-28T09:33:44.303Z,1.40
2022-09-28T09:39:00.407Z,2.17
2022-09-28T09:41:46.633Z,1.88
2022-09-28T09:44:57.217Z,6.40
2022-09-28T09:50:34.208Z,1.77
2022-09-28T09:53:04.678Z,1.67
2022-09-28T09:55:40.723Z,2.05
2022-09-28T10:00:54.388Z,0.80
2022-09-28T10:06:16.840Z,1.23
2022-09-28T10:11:22.466Z,1.05
2022-09-28T10:23:41.136Z,1.58
2022-09-28T10:26:10.867Z,1.40
2022-09-28T10:28:43.255Z,1.30
2022-09-28T10:31:29.004Z,1.10
2022-09-28T10:41:17.354Z,1.20
2022-09-28T10:44:06.384Z,1.42
2022-09-28T10:49:18.820Z,2.08
2022-09-28T10:54:25.725Z,1.00
2022-09-28T10:56:53.586Z,1.33
2022-09-28T11:02:00.322Z,1.10
2022-09-28T11:04:28.966Z,0.98
2022-09-28T11:09:31.623Z,0.93
2022-09-28T11:11:59.014Z,1.23
2022-09-28T11:14:27.679Z,1.25
2022-09-28T11:17:16.805Z,1.20
2022-09-28T11:19:44.970Z,1.23
2022-09-28T11:22:29.944Z,1.33
2022-09-28T11:25:13.107Z,1.17
2022-09-28T11:31:02.346Z,1.20
2022-09-28T11:33:38.908Z,1.00
2022-09-28T11:39:09.314Z,1.00
2022-09-28T11:42:11.880Z,0.95
2022-09-28T11:44:47.158Z,0.93
2022-09-28T11:47:13.703Z,1.17
2022-09-28T11:49:40.301Z,1.13
2022-09-28T11:52:10.942Z,1.35
2022-09-28T11:54:40.668Z,1.20
2022-09-28T11:57:12.098Z,1.30
2022-09-28T11:59:42.869Z,1.00
2022-09-28T12:02:35.807Z,0.95
2022-09-28T12:10:30.087Z,0.80
2022-09-28T12:13:01.197Z,0.90
2022-09-28T12:15:35.021Z,0.70
2022-09-28T12:18:18.819Z,0.65
2022-09-28T12:20:48.128Z,0.35
2022-09-28T12:23:17.020Z,0.95
2022-09-28T12:25:53.735Z,1.27
2022-09-28T12:28:37.041Z,0.77
2022-09-28T12:41:34.792Z,0.77
2022-09-28T12:46:33.466Z,0.90
2022-09-28T12:52:08.918Z,1.20
2022-09-28T12:54:55.739Z,0.90
2022-09-28T13:05:12.799Z,1.00
2022-09-28T13:07:58.056Z,1.23
2022-09-28T13:15:39.682Z,0.90
2022-09-28T13:20:43.798Z,1.08
2022-09-28T13:23:28.931Z,1.00
2022-09-28T13:28:27.418Z,0.85
2022-09-28T13:30:55.662Z,1.05
2022-09-28T13:33:31.307Z,0.93
2022-09-28T13:35:57.913Z,1.30
2022-09-28T13:38:25.464Z,0.95
2022-09-28T13:41:11.274Z,1.00
2022-09-28T13:43:50.172Z,0.80
2022-09-28T13:46:29.250Z,0.90
2022-09-28T13:49:01.791Z,1.13
2022-09-28T13:51:38.684Z,1.02
2022-09-28T13:54:05.981Z,1.13
2022-09-28T13:56:35.403Z,1.10
2022-09-28T13:59:17.318Z,1.10
2022-09-28T14:01:55.713Z,0.98
2022-09-28T14:06:53.549Z,0.80
2022-09-28T14:14:51.564Z,0.80
2022-09-28T14:17:21.093Z,0.88
2022-09-28T14:22:55.753Z,1.05
2022-09-28T14:30:27.363Z,0.80
2022-09-28T14:32:53.972Z,0.60
2022-09-28T14:35:27.024Z,1.10
2022-09-28T14:38:16.069Z,1.15
2022-09-28T14:41:10.194Z,1.02
2022-09-28T14:43:45.763Z,0.98
2022-09-28T14:46:14.560Z,0.90
2022-09-28T14:48:43.717Z,0.88
2022-09-28T14:51:39.891Z,0.90
2022-09-28T14:54:14.960Z,1.00
2022-09-28T14:59:23.830Z,1.33
2022-09-28T15:01:53.718Z,0.88
2022-09-28T15:04:20.684Z,1.20
2022-09-28T15:06:48.605Z,1.27
2022-09-28T15:09:31.959Z,1.00
2022-09-28T15:11:59.659Z,0.93
2022-09-28T15:14:28.242Z,1.20
2022-09-28T15:16:55.394Z,0.98
2022-09-28T15:19:33.169Z,0.80
2022-09-28T15:21:59.940Z,0.80
2022-09-28T15:24:35.807Z,0.93
2022-09-28T15:27:04.172Z,0.93
2022-09-28T15:29:33.494Z,1.05
2022-09-28T15:32:00.709Z,1.02
2022-09-28T15:34:46.711Z,1.17
2022-09-28T15:37:50.317Z,2.00
2022-09-28T15:40:18.222Z,1.40
2022-09-28T15:42:46.164Z,1.20
2022-09-28T15:48:11.735Z,1.73
2022-09-28T15:50:40.407Z,2.15
2022-09-28T15:53:07.075Z,1.50
2022-09-28T15:55:55.490Z,1.25
2022-09-28T15:58:22.765Z,1.20
2022-09-28T16:00:50.452Z,1.45
2022-09-28T16:03:17.024Z,1.30
2022-09-28T16:05:46.781Z,0.88
2022-09-28T16:15:59.801Z,1.27
2022-09-28T16:18:27.302Z,0.88
2022-09-28T16:26:17.164Z,1.33
2022-09-28T16:28:48.763Z,1.15
2022-09-28T16:33:44.104Z,1.20
2022-09-28T16:36:12.436Z,1.10
2022-09-28T16:38:39.047Z,1.15
2022-09-28T16:41:20.765Z,1.20
2022-09-28T16:43:47.725Z,1.83
2022-09-28T16:46:20.630Z,2.10
2022-09-28T16:48:50.980Z,2.58
2022-09-28T16:51:18.678Z,1.48
2022-09-28T16:58:55.768Z,1.95
2022-09-28T17:01:22.845Z,1.35
2022-09-28T17:06:16.274Z,1.33
2022-09-28T17:08:43.260Z,1.02
2022-09-28T17:13:42.647Z,2.88
2022-09-28T17:16:13.656Z,4.10
2022-09-28T17:18:40.369Z,2.08
2022-09-28T17:23:35.159Z,2.97
2022-09-28T17:26:02.042Z,3.20
2022-09-28T17:28:32.783Z,2.83
2022-09-28T17:30:59.518Z,1.65
2022-09-28T17:33:26.250Z,4.68
2022-09-28T17:35:54.723Z,1.52
2022-09-28T17:43:13.530Z,1.17
2022-09-28T17:45:41.134Z,0.90
2022-09-28T17:50:37.890Z,1.10
2022-09-28T17:53:06.479Z,0.85
2022-09-28T17:55:34.395Z,0.90
2022-09-28T17:58:01.720Z,0.82
2022-09-28T18:00:28.790Z,1.25
2022-09-28T18:02:57.072Z,0.93
2022-09-28T18:05:24.977Z,1.13
2022-09-28T18:07:52.273Z,1.20
2022-09-28T18:10:21.425Z,1.52
2022-09-28T18:15:15.150Z,1.95
2022-09-28T18:17:41.928Z,1.90
2022-09-28T18:27:27.530Z,2.17
2022-09-28T18:29:54.340Z,3.03
2022-09-28T18:32:20.932Z,3.25
2022-09-28T18:37:12.982Z,3.40
2022-09-28T18:39:39.668Z,3.55
2022-09-28T18:44:32.208Z,3.33
2022-09-28T18:47:02.352Z,4.03
2022-09-28T18:49:30.562Z,4.25
2022-09-28T18:51:57.580Z,4.18
2022-09-28T18:54:24.555Z,4.30
2022-09-28T19:01:45.652Z,3.88
2022-09-28T19:04:15.606Z,3.83
2022-09-28T19:06:44.482Z,4.43
2022-09-28T19:09:11.718Z,3.70
2022-09-28T19:11:38.370Z,3.28
2022-09-28T19:14:04.993Z,3.40
2022-09-28T19:16:33.759Z,3.50
2022-09-28T19:19:02.914Z,3.60
2022-09-28T19:21:30.225Z,2.92
2022-09-28T19:24:00.000Z,3.08
2022-09-28T19:26:27.547Z,2.85
2022-09-28T19:29:19.073Z,3.30
2022-09-28T19:31:46.077Z,2.05
2022-09-28T19:34:14.189Z,2.00
2022-09-28T19:36:41.466Z,2.10
2022-09-28T19:51:51.646Z,2.42
2022-09-28T19:54:36.346Z,3.00
2022-09-28T19:57:08.886Z,3.33
2022-09-28T20:02:02.224Z,3.92
2022-09-28T20:04:29.799Z,3.45
2022-09-28T20:06:56.831Z,2.75
2022-09-28T20:09:23.515Z,2.97
2022-09-28T20:11:51.988Z,2.30
2022-09-28T20:14:18.887Z,2.25
2022-09-28T20:21:40.435Z,2.58
2022-09-28T20:26:37.467Z,2.25
2022-09-28T20:31:36.547Z,2.55
2022-09-28T20:34:04.360Z,2.25
2022-09-28T20:36:33.752Z,2.58
2022-09-28T20:39:01.890Z,2.65
2022-09-28T20:41:29.222Z,2.22
2022-09-28T20:43:57.209Z,1.90
2022-09-28T20:53:47.060Z,1.10
2022-09-28T20:56:21.662Z,1.40
2022-09-28T21:01:17.670Z,1.42
2022-09-28T21:03:51.954Z,1.38
2022-09-28T21:06:19.508Z,1.40
2022-09-28T21:08:46.539Z,1.73
2022-09-28T21:11:13.912Z,1.83
2022-09-28T21:13:42.996Z,1.83
2022-09-28T21:16:10.982Z,1.80
2022-09-28T21:21:05.442Z,2.10
2022-09-28T21:23:32.070Z,1.90
2022-09-28T21:28:35.377Z,2.00
2022-09-28T21:31:02.340Z,1.90
2022-09-28T21:35:54.465Z,1.75
2022-09-28T21:38:21.227Z,2.05
2022-09-28T21:40:48.532Z,1.85
2022-09-28T21:43:15.594Z,1.70
2022-09-28T21:45:42.146Z,1.70
2022-09-28T21:53:01.873Z,2.10
2022-09-28T21:57:54.071Z,2.22
2022-09-28T22:00:23.214Z,2.00
2022-09-28T22:02:50.816Z,1.70
2022-09-28T22:05:17.927Z,2.10
2022-09-28T22:07:44.694Z,2.58
2022-09-28T22:10:12.930Z,2.80
2022-09-28T22:17:30.994Z,2.38
2022-09-28T22:22:26.132Z,1.85
2022-09-28T22:24:56.183Z,2.55
2022-09-28T22:29:49.543Z,2.20
2022-09-28T22:32:16.284Z,2.28
2022-09-28T22:34:43.055Z,2.40
2022-09-28T22:37:09.641Z,1.60
2022-09-28T22:39:37.826Z,1.80
2022-09-28T22:44:30.205Z,2.80
2022-09-28T22:46:56.926Z,1.98
2022-09-28T22:49:23.774Z,2.03
2022-09-28T22:51:50.679Z,2.70
2022-09-28T22:54:17.311Z,2.33
2022-09-28T22:56:44.221Z,2.30
2022-09-28T23:04:02.645Z,1.73
2022-09-28T23:06:30.841Z,1.65
2022-09-28T23:08:57.552Z,2.03
2022-09-28T23:11:24.145Z,2.60
2022-09-28T23:13:51.635Z,2.50
2022-09-28T23:16:18.763Z,2.95
2022-09-28T23:18:45.443Z,3.55
2022-09-28T23:23:40.933Z,2.30
2022-09-28T23:26:14.951Z,2.00
2022-09-28T23:28:41.705Z,1.92
2022-09-28T23:31:12.111Z,2.45
2022-09-28T23:38:29.709Z,2.67
2022-09-28T23:45:47.407Z,2.08
2022-09-28T23:48:15.191Z,1.55
2022-09-28T23:55:35.753Z,1.55
2022-09-28T23:58:02.379Z,1.27
